Dohne, South Africa

9:44 PM SAST on February 19, 2017 (GMT +0200)
East London | | Change Station

Elev 410 ft 33.03 °S, 27.83 °E | Updated 1 hour ago

Rain
Rain
64 °F
Feels Like 64 °F
N
2
Wind Variable Wind from Variable

Today
High -- | Low -- °F
--% Chance of Precip.
Yesterday
High -- | Low -- °F
Precip. -- in
Pressure 30.24 in
Visibility 6.2 miles
Clouds Scattered Clouds 3200 ft
Overcast 4000 ft
Dew Point 63 °F
Humidity 94%
Rainfall 0.00 in
Snow Depth Not available.
5:50 AM 6:56 PM
Last Quarter, 41% visible
METAR FAEL 191800Z VRB02KT 9999 SCT032 OVC040 18/17 Q1024
Pressure 30.24 in
Visibility 6.2 miles
Clouds Scattered Clouds 3200 ft
Overcast 4000 ft
Dew Point 63 °F
Humidity 94%
Rainfall 0.00 in
Snow Depth Not available.
5:50 AM 6:56 PM
Last Quarter, 41% visible
METAR FAEL 191800Z VRB02KT 9999 SCT032 OVC040 18/17 Q1024

Get Your Daily Forecast Email!

Thanks for signing up!

Be on the lookout for a verification email in your inbox.

You'll start receiving the daily forecast at 8 AM.

×

10-Day Weather Forecast

No radar image for this location.
×

Almanac

Astronomy

Feb. 19, 2017 Rise Set
Actual Time
Civil Twilight
Nautical Twilight
Astronomical Twilight
Moon
Length of Visible Light
Length of Day
Tomorrow will be .
, % of the Moon is Illuminated

Today's Extremes

Country Highs Country Lows

Community

WunderPhotos

Upload Photos

1,962,540 photos uploaded!

WunderBlog® & News

Nearby

Air Quality

  Air Quality AQ Index Pollutant
Not available.

Snow Depth

Station Depth Elevation

Earthquake Activity

City Distance Mag. Time & Date
Minimum magnitude displayed is 2.5.

Coastal Water Temperatures

Place Temperature

Stations

Nearby Weather Stations

Station Location Temp. Windchill Dew Point Humidity Wind Precip. Elev Updated Type